Istachatta, Florida
Current Conditions -  °F | °C
As of 1:15 PM on Friday 19 Dec 2014 (Local Time) from KINF Reporting Station
Haze Haze  
Wind Chill: 70°   Ceiling: Unl
Heat Index: 70°   Visibility: 5mi
Dew Point: 43°   Wind: 3mph
Humidity: 38%   Direction: 110°ESE
Pressure: 30.1"   Gusts: NA
Location:  28.66°N, 82.28°W
Report Text: KINF 191815Z AUTO 11003KT 5SM HZ CLR 21/06 A3010 RMK AO2
Loading
Personal Weather Stations






























Interactive Weather Map New forecast layout! Learn more

10-Day Weather Forecast

Advertisements
Track Severe Weather on mobile